createdAt,value
2023-09-01T00:02:13.187Z,84.48
2023-09-01T00:08:32.202Z,84.48
2023-09-01T00:14:53.227Z,84.53
2023-09-01T00:21:13.223Z,84.49
2023-09-01T00:27:35.199Z,84.83
2023-09-01T00:33:55.251Z,85.29
2023-09-01T00:40:16.252Z,85.67
2023-09-01T00:46:36.201Z,85.84
2023-09-01T00:52:58.242Z,86.1
2023-09-01T00:59:18.189Z,86.19
2023-09-01T01:05:39.215Z,86.51
2023-09-01T01:11:59.216Z,86.51
2023-09-01T01:18:21.212Z,86.78
2023-09-01T01:24:41.185Z,86.89
2023-09-01T01:31:02.243Z,87.12
2023-09-01T01:37:22.195Z,86.83
2023-09-01T01:43:44.211Z,86.98
2023-09-01T01:50:04.214Z,87.12
2023-09-01T01:56:25.208Z,87.06
2023-09-01T02:02:45.230Z,87.05
2023-09-01T02:09:06.247Z,87.42
2023-09-01T02:15:26.187Z,87.8
2023-09-01T02:21:47.216Z,88.16
2023-09-01T02:28:07.219Z,88.77
2023-09-01T02:34:29.245Z,89.45
2023-09-01T02:40:49.188Z,89.91
2023-09-01T02:47:11.235Z,90.15
2023-09-01T02:53:31.187Z,90.47
2023-09-01T02:59:52.214Z,90.57
2023-09-01T03:06:12.246Z,90.63
2023-09-01T03:12:34.216Z,90.66
2023-09-01T03:18:54.200Z,90.85
2023-09-01T03:25:15.274Z,91
2023-09-01T03:31:35.200Z,91.17
2023-09-01T03:54:21.236Z,91.13
2023-09-01T04:00:43.206Z,91.32
2023-09-01T04:07:02.217Z,91.38
2023-09-01T04:13:24.215Z,91.37
2023-09-01T04:19:43.227Z,91.5
2023-09-01T04:26:05.215Z,91.5
2023-09-01T04:32:25.257Z,91.72
2023-09-01T04:38:47.212Z,91.67
2023-09-01T04:45:07.200Z,91.72
2023-09-01T04:51:28.238Z,91.69
2023-09-01T04:57:48.193Z,91.42
2023-09-01T05:04:11.313Z,91.45
2023-09-01T05:10:29.237Z,91.25
2023-09-01T05:16:51.231Z,91.21
2023-09-01T05:23:10.242Z,91.07
2023-09-01T05:29:32.246Z,90.86
2023-09-01T05:35:51.215Z,90.96
2023-09-01T05:42:13.219Z,90.86
2023-09-01T05:48:33.228Z,90.62
2023-09-01T05:54:54.200Z,90.61
2023-09-01T06:01:14.233Z,90.55
2023-09-01T06:07:36.218Z,90.72
2023-09-01T06:13:55.227Z,90.3
2023-09-01T06:20:19.733Z,90.05
2023-09-01T06:26:36.225Z,89.65
2023-09-01T06:32:58.253Z,88.87
2023-09-01T06:39:18.196Z,89
2023-09-01T06:45:39.293Z,88.51
2023-09-01T06:51:59.192Z,88.63
2023-09-01T06:58:21.241Z,88.58
2023-09-01T07:04:40.464Z,88.44
2023-09-01T07:11:02.193Z,88.86
2023-09-01T07:17:21.225Z,89.13
2023-09-01T07:23:43.225Z,89.91
2023-09-01T07:30:03.192Z,90.84
2023-09-01T07:36:24.203Z,91.35
2023-09-01T07:42:44.214Z,91.73
2023-09-01T07:49:06.239Z,92.27
2023-09-01T07:55:26.260Z,92.54
2023-09-01T08:01:48.220Z,92.61
2023-09-01T08:08:08.287Z,92.25
2023-09-01T08:14:30.193Z,92.69
2023-09-01T08:20:50.256Z,92.72
2023-09-01T08:27:12.208Z,92.68
2023-09-01T08:33:32.220Z,92.57
2023-09-01T08:39:54.244Z,92.38
2023-09-01T08:46:15.704Z,92.09
2023-09-01T08:52:36.199Z,91.38
2023-09-01T08:58:56.251Z,91.29
2023-09-01T09:05:18.205Z,90.9
2023-09-01T09:11:38.233Z,89
2023-09-01T09:28:03.748Z,88.48
2023-09-01T09:34:23.201Z,87.26
2023-09-01T09:40:44.218Z,86.82
2023-09-01T09:47:04.223Z,86.27
2023-09-01T09:53:25.209Z,85.23
2023-09-01T09:59:45.199Z,86.46
2023-09-01T10:06:06.232Z,87.01
2023-09-01T10:12:26.193Z,87.42
2023-09-01T10:18:47.197Z,88.22
2023-09-01T10:25:06.252Z,88.49
2023-09-01T10:31:28.225Z,88.67
2023-09-01T10:37:47.197Z,87.9
2023-09-01T10:44:09.256Z,88.08
2023-09-01T10:50:28.198Z,88.33
2023-09-01T10:56:50.233Z,88.78
2023-09-01T11:03:10.263Z,88.27
2023-09-01T11:09:32.199Z,88.34
2023-09-01T11:15:52.232Z,88.08
2023-09-01T11:22:14.233Z,88.48
2023-09-01T11:28:33.218Z,88.17
2023-09-01T11:34:55.204Z,88.59
2023-09-01T11:41:14.411Z,87.31
2023-09-01T11:47:36.198Z,86.3
2023-09-01T11:53:55.293Z,87.38
2023-09-01T12:00:17.246Z,86.23
2023-09-01T12:06:37.220Z,86.99
2023-09-01T12:12:59.225Z,86.61
2023-09-01T12:19:19.220Z,87.4
2023-09-01T12:25:40.196Z,86.69
2023-09-01T12:32:00.254Z,87.12
2023-09-01T12:38:22.278Z,86.49
2023-09-01T12:44:41.217Z,86.24
2023-09-01T12:51:03.199Z,85.1
2023-09-01T12:57:23.218Z,85.13
2023-09-01T13:03:45.236Z,82.5
2023-09-01T13:10:05.200Z,83.35
2023-09-01T13:16:26.271Z,82.67
2023-09-01T13:22:46.206Z,82.01
2023-09-01T13:29:07.205Z,79.06
2023-09-01T13:35:27.251Z,81.5
2023-09-01T13:41:49.463Z,78.24
2023-09-01T13:48:09.255Z,80.37
2023-09-01T13:54:31.222Z,78.1
2023-09-01T14:00:50.286Z,77.63
2023-09-01T14:07:12.247Z,80.78
2023-09-01T14:13:32.219Z,81.75
2023-09-01T14:19:54.245Z,83.88
2023-09-01T14:26:14.191Z,83.7
2023-09-01T14:32:36.318Z,83.71
2023-09-01T14:38:56.291Z,83.79
2023-09-01T14:45:18.436Z,84.5
2023-09-01T14:51:38.257Z,81.49
2023-09-01T15:08:39.663Z,83.47
2023-09-01T15:14:59.202Z,81.37
2023-09-01T15:21:21.200Z,81.04
2023-09-01T15:27:41.230Z,82.49
2023-09-01T15:34:03.215Z,83.65
2023-09-01T15:40:23.245Z,83.63
2023-09-01T15:46:45.469Z,82.04
2023-09-01T15:53:05.215Z,80.87
2023-09-01T15:59:27.291Z,80.52
2023-09-01T16:05:47.218Z,79.81
2023-09-01T16:12:09.233Z,79.68
2023-09-01T16:18:29.192Z,79.47
2023-09-01T16:24:50.236Z,81
2023-09-01T16:31:10.246Z,80.35
2023-09-01T16:37:31.199Z,80.63
2023-09-01T16:43:51.269Z,81.04
2023-09-01T16:50:13.206Z,80.24
2023-09-01T16:56:32.263Z,79.78
2023-09-01T17:02:54.299Z,79.52
2023-09-01T17:09:13.193Z,80.55
2023-09-01T17:15:34.243Z,81.42
2023-09-01T17:21:54.231Z,82.53
2023-09-01T17:28:15.217Z,83.82
2023-09-01T17:34:35.221Z,82.47
2023-09-01T17:40:57.228Z,82.76
2023-09-01T17:47:17.238Z,83.94
2023-09-01T17:53:39.214Z,84.06
2023-09-01T17:59:59.446Z,84.14
2023-09-01T18:06:21.203Z,84.66
2023-09-01T18:12:40.202Z,84.65
2023-09-01T18:19:02.243Z,85.52
2023-09-01T18:25:22.218Z,85.6
2023-09-01T18:31:44.260Z,85.98
2023-09-01T18:38:04.245Z,85.95
2023-09-01T18:44:26.207Z,87.09
2023-09-01T18:50:45.227Z,86.75
2023-09-01T18:57:07.348Z,87.26
2023-09-01T19:03:27.346Z,88.27
2023-09-01T19:09:49.230Z,87.99
2023-09-01T19:16:09.290Z,88.02
2023-09-01T19:22:30.207Z,88.66
2023-09-01T19:28:50.192Z,88.64
2023-09-01T19:35:11.257Z,88.38
2023-09-01T19:41:31.224Z,88.55
2023-09-01T19:47:53.238Z,88.91
2023-09-01T19:54:12.249Z,88.85
2023-09-01T20:00:34.245Z,89.04
2023-09-01T20:06:53.203Z,89.52
2023-09-01T20:13:15.432Z,89.39
2023-09-01T20:19:35.199Z,89.53
2023-09-01T20:25:57.210Z,89.57
2023-09-01T20:32:17.216Z,89.5
2023-09-01T20:48:42.650Z,89.78
2023-09-01T20:55:02.199Z,89.8
2023-09-01T21:01:23.216Z,90.32
2023-09-01T21:07:43.219Z,90.67
2023-09-01T21:14:04.194Z,90.78
2023-09-01T21:20:23.215Z,90.9
2023-09-01T21:26:45.233Z,90.9
2023-09-01T21:33:05.220Z,91.01
2023-09-01T21:39:27.211Z,90.57
2023-09-01T21:45:47.253Z,90.97
2023-09-01T21:52:08.210Z,90.87
2023-09-01T21:58:28.242Z,90.91
2023-09-01T22:21:26.237Z,91.58
2023-09-01T22:27:45.210Z,91.75
2023-09-01T22:34:07.192Z,91.74
2023-09-01T22:40:26.256Z,91.88
2023-09-01T22:46:48.207Z,91.88
2023-09-01T22:53:08.283Z,92.18
2023-09-01T22:59:30.271Z,92.23
2023-09-01T23:05:49.252Z,92.38
2023-09-01T23:12:11.259Z,92.35
2023-09-01T23:18:31.279Z,92.47
2023-09-01T23:24:53.227Z,92.64
2023-09-01T23:31:13.230Z,92.82
2023-09-01T23:37:35.225Z,92.79
2023-09-01T23:43:55.222Z,92.61
2023-09-01T23:50:17.211Z,92.86
2023-09-01T23:56:37.264Z,92.66
